createdAt,value
2018-01-24T00:00:30.839Z,26.87
2018-01-24T00:02:58.589Z,23.33
2018-01-24T00:05:26.392Z,26.33
2018-01-24T00:07:54.042Z,19.40
2018-01-24T00:10:21.726Z,22.13
2018-01-24T00:12:49.623Z,24.30
2018-01-24T00:15:17.392Z,24.50
2018-01-24T00:17:45.136Z,20.03
2018-01-24T00:20:12.912Z,21.03
2018-01-24T00:22:40.647Z,21.17
2018-01-24T00:25:08.423Z,23.07
2018-01-24T00:27:37.087Z,20.47
2018-01-24T00:30:04.871Z,23.23
2018-01-24T00:32:32.593Z,23.10
2018-01-24T00:35:00.294Z,18.97
2018-01-24T00:37:28.058Z,23.13
2018-01-24T00:39:55.853Z,19.07
2018-01-24T00:42:23.586Z,30.17
2018-01-24T00:44:51.297Z,25.80
2018-01-24T00:47:19.033Z,24.43
2018-01-24T00:49:46.799Z,20.07
2018-01-24T00:52:14.527Z,23.20
2018-01-24T00:54:42.307Z,24.07
2018-01-24T00:57:10.047Z,20.13
2018-01-24T00:59:37.790Z,24.23
2018-01-24T01:02:05.566Z,19.17
2018-01-24T01:04:33.321Z,19.83
2018-01-24T01:07:01.009Z,20.63
2018-01-24T01:09:28.738Z,21.73
2018-01-24T01:11:56.612Z,18.80
2018-01-24T01:14:24.267Z,21.93
2018-01-24T01:16:52.055Z,21.93
2018-01-24T01:19:19.794Z,19.70
2018-01-24T01:21:47.584Z,23.87
2018-01-24T01:24:15.308Z,19.87
2018-01-24T01:26:43.081Z,24.10
2018-01-24T01:29:10.828Z,32.83
2018-01-24T01:31:38.536Z,28.80
2018-01-24T01:34:06.202Z,33.93
2018-01-24T01:36:33.928Z,33.20
2018-01-24T01:39:01.655Z,28.80
2018-01-24T01:41:29.454Z,27.40
2018-01-24T01:43:57.222Z,23.80
2018-01-24T01:46:25.046Z,23.20
2018-01-24T01:48:52.708Z,20.93
2018-01-24T01:51:20.501Z,28.70
2018-01-24T01:53:48.256Z,24.63
2018-01-24T01:56:16.034Z,21.10
2018-01-24T01:58:43.774Z,20.97
2018-01-24T02:01:11.636Z,25.27
2018-01-24T02:03:39.371Z,22.00
2018-01-24T02:06:07.150Z,21.13
2018-01-24T02:08:34.800Z,18.03
2018-01-24T02:11:02.487Z,19.33
2018-01-24T02:13:30.268Z,22.03
2018-01-24T02:15:57.966Z,17.00
2018-01-24T02:18:25.703Z,18.80
2018-01-24T02:20:53.463Z,24.20
2018-01-24T02:23:21.195Z,19.23
2018-01-24T02:25:49.034Z,18.27
2018-01-24T02:28:16.788Z,19.80
2018-01-24T02:30:44.584Z,21.67
2018-01-24T02:33:12.325Z,24.10
2018-01-24T02:35:40.104Z,26.87
2018-01-24T02:38:07.768Z,21.70
2018-01-24T02:40:35.504Z,20.73
2018-01-24T02:43:03.299Z,20.80
2018-01-24T02:45:31.049Z,22.40
2018-01-24T02:47:58.833Z,21.17
2018-01-24T02:50:26.479Z,24.33
2018-01-24T02:52:54.270Z,25.63
2018-01-24T02:55:21.935Z,25.43
2018-01-24T02:57:49.965Z,23.17
2018-01-24T03:00:17.615Z,18.97
2018-01-24T03:02:45.392Z,20.17
2018-01-24T03:05:13.128Z,23.17
2018-01-24T03:07:40.915Z,24.73
2018-01-24T03:10:08.570Z,24.60
2018-01-24T03:12:36.426Z,28.23
2018-01-24T03:15:04.099Z,25.20
2018-01-24T03:17:31.898Z,22.23
2018-01-24T03:19:59.628Z,20.60
2018-01-24T03:22:27.321Z,24.37
2018-01-24T03:24:55.083Z,18.80
2018-01-24T03:27:22.902Z,19.50
2018-01-24T03:29:50.631Z,18.03
2018-01-24T03:32:18.412Z,23.80
2018-01-24T03:34:46.069Z,23.17
2018-01-24T03:37:13.871Z,20.57
2018-01-24T03:39:41.589Z,19.53
2018-01-24T03:42:09.368Z,19.77
2018-01-24T03:44:37.104Z,27.10
2018-01-24T03:47:04.881Z,20.07
2018-01-24T03:49:33.098Z,19.27
2018-01-24T03:52:00.824Z,18.43
2018-01-24T03:54:28.560Z,19.57
2018-01-24T03:56:56.255Z,17.30
2018-01-24T03:59:23.983Z,20.83
2018-01-24T04:01:51.681Z,17.27
2018-01-24T04:04:19.409Z,17.00
2018-01-24T04:06:47.186Z,17.83
2018-01-24T04:09:14.913Z,20.43
2018-01-24T04:11:42.749Z,18.33
2018-01-24T04:14:10.491Z,16.30
2018-01-24T04:16:38.273Z,17.33
2018-01-24T04:19:06.008Z,18.40
2018-01-24T04:21:33.750Z,18.50
2018-01-24T04:24:01.450Z,18.57
2018-01-24T04:26:29.205Z,20.10
2018-01-24T04:28:56.907Z,15.13
2018-01-24T04:31:24.557Z,18.03
2018-01-24T04:33:52.261Z,16.37
2018-01-24T04:36:19.909Z,16.80
2018-01-24T04:38:47.606Z,19.73
2018-01-24T04:41:15.334Z,17.37
2018-01-24T04:43:43.118Z,16.03
2018-01-24T04:46:10.857Z,18.67
2018-01-24T04:48:38.626Z,20.10
2018-01-24T04:51:06.386Z,16.43
2018-01-24T04:53:34.980Z,19.80
2018-01-24T04:56:02.722Z,17.37
2018-01-24T04:58:30.456Z,19.30
2018-01-24T05:00:58.219Z,18.60
2018-01-24T05:03:26.015Z,16.53
2018-01-24T05:05:53.764Z,19.53
2018-01-24T05:08:21.582Z,18.50
2018-01-24T05:10:49.301Z,18.60
2018-01-24T05:13:17.072Z,16.73
2018-01-24T05:15:44.743Z,18.50
2018-01-24T05:18:12.564Z,18.80
2018-01-24T05:20:41.851Z,19.83
2018-01-24T05:23:09.659Z,16.40
2018-01-24T05:25:37.415Z,15.93
2018-01-24T05:28:05.121Z,20.77
2018-01-24T05:30:32.775Z,21.30
2018-01-24T05:33:00.558Z,18.67
2018-01-24T05:35:28.268Z,17.17
2018-01-24T05:37:56.057Z,16.97
2018-01-24T05:40:23.808Z,19.50
2018-01-24T05:42:51.498Z,20.43
2018-01-24T05:45:19.184Z,21.30
2018-01-24T05:47:46.885Z,126.97
2018-01-24T05:50:14.539Z,441.27
2018-01-24T05:52:42.243Z,925.43
2018-01-24T05:55:09.896Z,460.97
2018-01-24T05:57:37.608Z,172.13
2018-01-24T06:00:05.271Z,143.43
2018-01-24T06:02:32.996Z,42.37
2018-01-24T06:05:00.723Z,34.67
2018-01-24T06:07:28.383Z,30.50
2018-01-24T06:09:56.087Z,27.07
2018-01-24T06:12:23.751Z,26.47
2018-01-24T06:14:51.462Z,27.60
2018-01-24T06:17:19.125Z,29.00
2018-01-24T06:19:46.824Z,30.70
2018-01-24T06:22:14.484Z,24.37
2018-01-24T06:24:46.663Z,24.77
2018-01-24T06:27:14.548Z,26.77
2018-01-24T06:29:45.597Z,23.10
2018-01-24T06:32:13.252Z,21.37
2018-01-24T06:34:40.983Z,20.27
2018-01-24T06:37:08.632Z,26.10
2018-01-24T06:39:36.329Z,25.40
2018-01-24T06:42:03.991Z,22.70
2018-01-24T06:44:31.696Z,26.50
2018-01-24T06:46:59.467Z,27.37
2018-01-24T06:49:27.166Z,26.07
2018-01-24T06:51:54.817Z,24.93
2018-01-24T06:54:27.291Z,26.00
2018-01-24T06:56:54.938Z,23.50
2018-01-24T06:59:22.635Z,23.20
2018-01-24T07:01:50.356Z,22.57
2018-01-24T07:04:18.057Z,26.53
2018-01-24T07:06:45.712Z,23.43
2018-01-24T07:09:14.412Z,33.57
2018-01-24T07:11:42.079Z,24.60
2018-01-24T07:14:36.524Z,27.13
2018-01-24T07:17:04.189Z,31.17
2018-01-24T07:19:31.905Z,34.07
2018-01-24T07:21:59.565Z,26.37
2018-01-24T07:24:27.276Z,30.57
2018-01-24T07:26:54.940Z,29.90
2018-01-24T07:29:22.659Z,28.63
2018-01-24T07:31:50.320Z,29.90
2018-01-24T07:34:18.077Z,23.73
2018-01-24T07:36:45.738Z,24.87
2018-01-24T07:39:13.528Z,24.97
2018-01-24T07:41:41.339Z,29.17
2018-01-24T07:44:09.062Z,35.33
2018-01-24T07:46:36.801Z,30.23
2018-01-24T07:49:04.486Z,28.50
2018-01-24T07:51:32.184Z,28.27
2018-01-24T07:53:59.979Z,27.43
2018-01-24T07:56:27.674Z,29.77
2018-01-24T07:58:55.444Z,28.83
2018-01-24T08:01:23.154Z,24.87
2018-01-24T08:03:50.902Z,24.80
2018-01-24T08:06:18.575Z,23.30
2018-01-24T08:08:46.299Z,25.27
2018-01-24T08:11:14.120Z,27.60
2018-01-24T08:13:41.789Z,24.27
2018-01-24T08:16:09.513Z,20.10
2018-01-24T08:18:37.238Z,21.27
2018-01-24T08:21:04.957Z,22.93
2018-01-24T08:23:32.619Z,19.53
2018-01-24T08:26:00.359Z,20.70
2018-01-24T08:28:28.030Z,20.30
2018-01-24T08:30:55.823Z,21.90
2018-01-24T08:33:23.478Z,17.07
2018-01-24T08:35:51.193Z,18.30
2018-01-24T08:38:18.870Z,21.13
2018-01-24T08:40:46.577Z,19.37
2018-01-24T08:43:14.220Z,23.10
2018-01-24T08:45:42.016Z,20.60
2018-01-24T08:48:09.679Z,25.33
2018-01-24T08:50:37.526Z,354.23
2018-01-24T08:53:05.273Z,110.27
2018-01-24T08:55:32.982Z,29.60
2018-01-24T08:58:01.614Z,33.67
2018-01-24T09:00:29.336Z,36.17
2018-01-24T09:02:57.011Z,26.93
2018-01-24T09:05:24.791Z,24.77
2018-01-24T09:07:52.522Z,32.43
2018-01-24T09:10:20.267Z,25.40
2018-01-24T09:12:48.236Z,28.60
2018-01-24T09:15:16.028Z,27.00
2018-01-24T09:17:43.795Z,26.63
2018-01-24T09:20:11.572Z,25.80
2018-01-24T09:22:39.331Z,26.03
2018-01-24T09:25:07.154Z,24.13
2018-01-24T09:27:34.803Z,20.90
2018-01-24T09:30:02.549Z,21.83
2018-01-24T09:32:30.211Z,20.63
2018-01-24T09:34:57.915Z,19.60
2018-01-24T09:37:25.679Z,18.70
2018-01-24T09:39:53.375Z,19.07
2018-01-24T09:42:21.125Z,19.43
2018-01-24T09:44:48.842Z,15.60
2018-01-24T09:47:16.514Z,17.47
2018-01-24T09:49:44.233Z,16.30
2018-01-24T09:52:11.978Z,17.87
2018-01-24T09:54:39.718Z,15.43
2018-01-24T09:57:07.518Z,16.10
2018-01-24T09:59:35.283Z,17.43
2018-01-24T10:02:02.997Z,14.00
2018-01-24T10:04:30.755Z,15.47
2018-01-24T10:06:58.477Z,18.00
2018-01-24T10:09:26.231Z,13.33
2018-01-24T10:11:53.962Z,13.20
2018-01-24T10:14:21.702Z,11.50
2018-01-24T10:16:49.412Z,12.73
2018-01-24T10:19:17.073Z,11.20
2018-01-24T10:21:44.784Z,10.03
2018-01-24T10:24:12.891Z,12.17
2018-01-24T10:26:49.969Z,10.77
2018-01-24T10:29:21.133Z,9.60
2018-01-24T10:31:51.189Z,9.27
2018-01-24T10:34:21.939Z,12.03
2018-01-24T10:36:51.794Z,10.30
2018-01-24T10:39:21.606Z,10.53
2018-01-24T10:41:49.961Z,8.60
2018-01-24T10:44:22.779Z,9.03
2018-01-24T10:46:51.974Z,9.43
2018-01-24T10:49:19.828Z,9.03
2018-01-24T10:51:47.641Z,8.37
2018-01-24T10:54:15.387Z,9.10
2018-01-24T10:56:43.083Z,8.50
2018-01-24T10:59:10.747Z,11.13
2018-01-24T11:01:38.444Z,9.40
2018-01-24T11:04:06.104Z,7.73
2018-01-24T11:06:33.803Z,6.53
2018-01-24T11:09:01.506Z,6.37
2018-01-24T11:11:29.339Z,7.60
2018-01-24T11:13:57.031Z,7.80
2018-01-24T11:16:24.725Z,6.10
2018-01-24T11:18:52.386Z,7.07
2018-01-24T11:21:20.073Z,7.13
2018-01-24T11:23:47.719Z,7.53
2018-01-24T11:26:15.446Z,8.40
2018-01-24T11:28:43.170Z,6.50
2018-01-24T11:31:10.867Z,10.70
2018-01-24T11:33:38.602Z,6.90
2018-01-24T11:36:06.282Z,6.50
2018-01-24T11:38:33.923Z,6.03
2018-01-24T11:41:01.637Z,204.67
2018-01-24T11:43:29.370Z,46.03
2018-01-24T11:45:57.099Z,290.57
2018-01-24T11:48:24.764Z,50.60
2018-01-24T11:50:52.409Z,42.40
2018-01-24T11:53:20.116Z,11.80
2018-01-24T11:55:47.782Z,12.40
2018-01-24T11:58:15.506Z,8.57
2018-01-24T12:00:43.177Z,7.20
2018-01-24T12:03:10.877Z,9.20
2018-01-24T12:05:38.542Z,8.40
2018-01-24T12:08:06.246Z,7.43
2018-01-24T12:10:33.894Z,6.33
2018-01-24T12:13:01.611Z,8.00
2018-01-24T12:15:29.298Z,7.47
2018-01-24T12:17:57.016Z,7.97
2018-01-24T12:20:24.676Z,5.40
2018-01-24T12:22:52.383Z,8.53
2018-01-24T12:25:20.105Z,5.20
2018-01-24T12:27:47.850Z,6.67
2018-01-24T12:30:15.538Z,9.63
2018-01-24T12:32:43.343Z,6.30
2018-01-24T12:35:11.000Z,5.10
2018-01-24T12:37:38.713Z,4.57
2018-01-24T12:40:06.381Z,5.20
2018-01-24T12:42:34.076Z,3.90
2018-01-24T12:45:01.831Z,4.50
2018-01-24T12:47:29.546Z,5.57
2018-01-24T12:49:57.205Z,4.20
2018-01-24T12:52:24.993Z,3.80
2018-01-24T12:54:52.691Z,4.13
2018-01-24T12:57:20.403Z,10.67
2018-01-24T12:59:48.051Z,4.17
2018-01-24T13:02:15.867Z,3.97
2018-01-24T13:04:43.629Z,7.33
2018-01-24T13:07:11.333Z,3.43
2018-01-24T13:09:38.994Z,3.80
2018-01-24T13:12:06.730Z,6.40
2018-01-24T13:14:34.471Z,6.10
2018-01-24T13:17:02.172Z,3.10
2018-01-24T13:19:29.910Z,3.00
2018-01-24T13:21:57.655Z,3.90
2018-01-24T13:24:25.399Z,3.80
2018-01-24T13:26:53.215Z,3.00
2018-01-24T13:29:20.861Z,5.80
2018-01-24T13:31:48.566Z,3.00
2018-01-24T13:34:16.244Z,2.47
2018-01-24T13:36:44.037Z,4.00
2018-01-24T13:39:11.783Z,3.83
2018-01-24T13:41:39.424Z,3.20
2018-01-24T13:44:07.121Z,3.00
2018-01-24T13:46:35.786Z,2.80
2018-01-24T13:49:03.500Z,3.40
2018-01-24T13:51:31.151Z,3.20
2018-01-24T13:53:58.851Z,2.60
2018-01-24T13:56:26.509Z,5.70
2018-01-24T13:58:54.301Z,3.80
2018-01-24T14:01:21.943Z,3.13
2018-01-24T14:03:49.647Z,4.43
2018-01-24T14:06:17.376Z,3.50
2018-01-24T14:08:45.077Z,3.70
2018-01-24T14:11:12.739Z,3.93
2018-01-24T14:13:40.428Z,3.70
2018-01-24T14:16:08.091Z,4.87
2018-01-24T14:18:35.896Z,3.07
2018-01-24T14:21:03.574Z,3.87
2018-01-24T14:23:31.372Z,3.20
2018-01-24T14:25:59.025Z,4.83
2018-01-24T14:28:26.731Z,5.33
2018-01-24T14:30:54.543Z,2.80
2018-01-24T14:33:22.340Z,3.43
2018-01-24T14:35:50.005Z,3.40
2018-01-24T14:38:17.808Z,3.73
2018-01-24T14:40:45.471Z,3.60
2018-01-24T14:43:13.290Z,3.80
2018-01-24T14:45:40.947Z,4.20
2018-01-24T14:48:08.773Z,2.83
2018-01-24T14:50:36.523Z,2.97
2018-01-24T14:53:04.220Z,3.90
2018-01-24T14:55:31.979Z,159.80
2018-01-24T14:57:59.708Z,33.87
2018-01-24T15:00:27.376Z,11.57
2018-01-24T15:02:55.153Z,6.73
2018-01-24T15:05:22.806Z,3.63
2018-01-24T15:07:50.578Z,6.03
2018-01-24T15:10:18.256Z,4.63
2018-01-24T15:12:46.048Z,3.93
2018-01-24T15:15:13.749Z,4.77
2018-01-24T15:17:41.414Z,5.40
2018-01-24T15:20:09.191Z,5.60
2018-01-24T15:22:36.832Z,5.37
2018-01-24T15:25:04.630Z,6.83
2018-01-24T15:27:32.451Z,3.50
2018-01-24T15:30:00.223Z,3.50
2018-01-24T15:32:27.950Z,3.23
2018-01-24T15:34:55.747Z,2.73
2018-01-24T15:37:23.394Z,3.57
2018-01-24T15:39:51.100Z,3.00
2018-01-24T15:42:18.745Z,3.00
2018-01-24T15:44:46.440Z,6.60
2018-01-24T15:47:14.087Z,3.10
2018-01-24T15:49:41.859Z,4.50
2018-01-24T15:52:09.590Z,2.90
2018-01-24T15:54:37.383Z,2.10
2018-01-24T15:57:05.133Z,2.80
2018-01-24T15:59:32.907Z,2.63
2018-01-24T16:02:00.579Z,3.00
2018-01-24T16:04:28.363Z,3.20
2018-01-24T16:06:56.111Z,2.87
2018-01-24T16:09:23.811Z,3.90
2018-01-24T16:11:51.476Z,2.80
2018-01-24T16:14:19.195Z,2.53
2018-01-24T16:16:46.854Z,4.00
2018-01-24T16:19:14.555Z,2.67
2018-01-24T16:21:42.276Z,3.00
2018-01-24T16:24:09.987Z,3.60
2018-01-24T16:26:38.613Z,2.90
2018-01-24T16:29:06.433Z,5.83
2018-01-24T16:31:34.100Z,4.10
2018-01-24T16:34:01.881Z,4.17
2018-01-24T16:36:29.555Z,3.60
2018-01-24T16:38:57.251Z,3.70
2018-01-24T16:41:24.917Z,3.47
2018-01-24T16:43:52.735Z,4.30
2018-01-24T16:46:20.371Z,4.10
2018-01-24T16:48:48.166Z,3.37
2018-01-24T16:51:15.906Z,3.07
2018-01-24T16:53:43.551Z,3.87
2018-01-24T16:56:11.247Z,13.37
2018-01-24T16:58:38.900Z,13.23
2018-01-24T17:01:06.671Z,6.13
2018-01-24T17:03:34.399Z,5.77
2018-01-24T17:06:02.169Z,4.77
2018-01-24T17:08:29.864Z,3.93
2018-01-24T17:10:57.569Z,3.60
2018-01-24T17:13:25.221Z,3.70
2018-01-24T17:15:52.970Z,8.00
2018-01-24T17:18:20.671Z,3.10
2018-01-24T17:20:48.466Z,4.20
2018-01-24T17:23:16.227Z,3.27
2018-01-24T17:25:44.017Z,7.00
2018-01-24T17:28:11.696Z,3.90
2018-01-24T17:30:39.511Z,3.43
2018-01-24T17:33:07.204Z,4.33
2018-01-24T17:35:34.888Z,3.30
2018-01-24T17:38:02.630Z,5.17
2018-01-24T17:40:30.343Z,3.13
2018-01-24T17:42:58.001Z,3.17
2018-01-24T17:45:25.762Z,4.70
2018-01-24T17:47:53.554Z,4.23
2018-01-24T17:50:21.260Z,4.87
2018-01-24T17:52:49.011Z,3.77
2018-01-24T17:55:16.750Z,3.23
2018-01-24T17:57:44.511Z,2.90
2018-01-24T18:00:12.204Z,3.77
2018-01-24T18:02:39.932Z,2.97
2018-01-24T18:05:07.640Z,3.70
2018-01-24T18:07:35.384Z,3.47
2018-01-24T18:10:03.158Z,7.47
2018-01-24T18:12:30.910Z,5.37
2018-01-24T18:14:58.659Z,23.17
2018-01-24T18:17:26.306Z,7.00
2018-01-24T18:19:53.983Z,3.73
2018-01-24T18:22:21.628Z,5.37
2018-01-24T18:24:49.392Z,3.13
2018-01-24T18:27:17.091Z,3.80
2018-01-24T18:29:44.877Z,2.90
2018-01-24T18:32:12.571Z,3.23
2018-01-24T18:34:40.274Z,3.27
2018-01-24T18:37:08.014Z,3.70
2018-01-24T18:39:35.708Z,2.90
2018-01-24T18:42:03.468Z,4.63
2018-01-24T18:44:31.111Z,3.60
2018-01-24T18:46:58.812Z,3.10
2018-01-24T18:49:26.507Z,3.50
2018-01-24T18:51:54.257Z,3.40
2018-01-24T18:54:21.899Z,5.73
2018-01-24T18:56:49.584Z,3.60
2018-01-24T18:59:17.229Z,6.60
2018-01-24T19:01:44.926Z,4.07
2018-01-24T19:04:12.582Z,3.30
2018-01-24T19:06:40.299Z,5.43
2018-01-24T19:09:07.943Z,3.43
2018-01-24T19:11:35.638Z,3.40
2018-01-24T19:14:03.285Z,6.50
2018-01-24T19:16:30.990Z,3.60
2018-01-24T19:18:58.630Z,5.23
2018-01-24T19:21:26.318Z,2.80
2018-01-24T19:23:54.146Z,3.03
2018-01-24T19:26:21.831Z,3.50
2018-01-24T19:28:49.464Z,2.60
2018-01-24T19:31:17.154Z,2.57
2018-01-24T19:33:44.809Z,2.80
2018-01-24T19:36:12.507Z,2.57
2018-01-24T19:38:40.180Z,4.83
2018-01-24T19:41:07.886Z,2.80
2018-01-24T19:43:35.527Z,2.60
2018-01-24T19:46:03.225Z,2.80
2018-01-24T19:48:32.446Z,2.90
2018-01-24T19:51:00.244Z,3.57
2018-01-24T19:53:27.950Z,4.20
2018-01-24T19:55:55.632Z,4.27
2018-01-24T19:58:23.326Z,2.97
2018-01-24T20:00:51.044Z,3.50
2018-01-24T20:03:18.806Z,3.43
2018-01-24T20:05:46.510Z,3.70
2018-01-24T20:08:14.258Z,2.50
2018-01-24T20:10:42.020Z,4.73
2018-01-24T20:13:09.762Z,4.40
2018-01-24T20:15:37.447Z,2.63
2018-01-24T20:18:05.190Z,3.23
2018-01-24T20:20:32.842Z,5.20
2018-01-24T20:23:00.529Z,2.93
2018-01-24T20:25:28.167Z,3.87
2018-01-24T20:27:55.894Z,3.87
2018-01-24T20:30:23.548Z,3.90
2018-01-24T20:32:51.281Z,3.10
2018-01-24T20:35:18.928Z,3.00
2018-01-24T20:37:46.647Z,6.77
2018-01-24T20:40:14.354Z,3.63
2018-01-24T20:42:42.054Z,3.77
2018-01-24T20:45:09.730Z,3.80
2018-01-24T20:47:37.468Z,4.70
2018-01-24T20:50:05.152Z,3.63
2018-01-24T20:52:32.832Z,3.37
2018-01-24T20:55:00.471Z,4.07
2018-01-24T20:57:28.165Z,4.20
2018-01-24T20:59:55.808Z,3.73
2018-01-24T21:02:23.553Z,3.57
2018-01-24T21:04:51.182Z,4.63
2018-01-24T21:07:18.861Z,2.83
2018-01-24T21:09:46.542Z,3.63
2018-01-24T21:12:14.280Z,3.63
2018-01-24T21:14:41.982Z,3.03
2018-01-24T21:17:09.765Z,3.80
2018-01-24T21:19:37.449Z,3.30
2018-01-24T21:22:05.141Z,2.90
2018-01-24T21:24:32.832Z,3.43
2018-01-24T21:27:00.513Z,3.80
2018-01-24T21:29:40.038Z,3.60
2018-01-24T21:32:19.415Z,3.50
2018-01-24T21:34:59.015Z,3.60
2018-01-24T21:37:26.709Z,3.40
2018-01-24T21:39:54.361Z,2.73
2018-01-24T21:42:22.094Z,3.00
2018-01-24T21:44:49.723Z,3.00
2018-01-24T21:47:17.552Z,3.27
2018-01-24T21:49:45.188Z,2.70
2018-01-24T21:52:12.936Z,2.90
2018-01-24T21:54:40.584Z,2.33
2018-01-24T21:57:08.334Z,3.17
2018-01-24T21:59:35.993Z,3.97
2018-01-24T22:02:03.681Z,2.50
2018-01-24T22:04:31.394Z,2.60
2018-01-24T22:06:59.168Z,2.50
2018-01-24T22:09:26.852Z,2.30
2018-01-24T22:11:54.717Z,2.77
2018-01-24T22:14:22.483Z,3.43
2018-01-24T22:16:50.231Z,2.60
2018-01-24T22:19:17.983Z,2.83
2018-01-24T22:21:45.752Z,3.07
2018-01-24T22:24:13.520Z,5.33
2018-01-24T22:26:41.326Z,2.53
2018-01-24T22:29:09.010Z,4.20
2018-01-24T22:31:36.753Z,2.47
2018-01-24T22:34:04.559Z,3.10
2018-01-24T22:36:32.372Z,3.80
2018-01-24T22:39:00.068Z,2.30
2018-01-24T22:41:27.759Z,2.57
2018-01-24T22:43:55.527Z,2.93
2018-01-24T22:46:23.264Z,2.60
2018-01-24T22:48:51.024Z,3.30
2018-01-24T22:51:24.247Z,2.73
2018-01-24T22:53:52.014Z,3.13
2018-01-24T22:56:19.734Z,2.60
2018-01-24T22:58:47.586Z,2.47
2018-01-24T23:01:15.323Z,3.63
2018-01-24T23:03:43.115Z,3.80
2018-01-24T23:06:10.758Z,3.07
2018-01-24T23:08:38.447Z,2.37
2018-01-24T23:11:06.173Z,2.10
2018-01-24T23:13:33.863Z,2.70
2018-01-24T23:16:01.587Z,2.80
2018-01-24T23:18:29.396Z,2.30
2018-01-24T23:20:57.125Z,3.27
2018-01-24T23:23:24.908Z,3.20
2018-01-24T23:25:52.652Z,2.70
2018-01-24T23:28:20.433Z,2.60
2018-01-24T23:30:48.155Z,3.00
2018-01-24T23:33:15.931Z,2.53
2018-01-24T23:35:43.659Z,4.53
2018-01-24T23:38:11.474Z,3.03
2018-01-24T23:40:39.221Z,2.67
2018-01-24T23:43:07.014Z,2.90
2018-01-24T23:45:34.744Z,2.90
2018-01-24T23:48:02.526Z,2.40
2018-01-24T23:50:30.180Z,4.00
2018-01-24T23:52:57.887Z,2.53
2018-01-24T23:55:25.549Z,3.40
2018-01-24T23:57:53.343Z,2.50
